Time;durP1;ratioP1;P1;durP2;ratioP2;P2;SDS_P1;SDS_P2;PMS_P1;PMS_P2;Temp;Humidity;BMP_temperature;BMP_pressure;BME280_temperature;BME280_humidity;BME280_pressure;Samples;Min_cycle;Max_cycle;Signal;HPM_P1;HPM_P2
2023/12/02 00:01:31;;;;;;;11.05;6.45;;;;;;;;;;5085621;28;20115;-54
2023/12/02 00:03:57;;;;;;;11.55;6.75;;;;;;;;;;5086498;28;20111;-55
2023/12/02 00:06:23;;;;;;;11.73;6.70;;;;;;;;;;5085434;28;20028;-54
2023/12/02 00:08:49;;;;;;;11.40;6.70;;;;;;;;;;5085655;28;20421;-52
2023/12/02 00:11:15;;;;;;;11.68;6.80;;;;;;;;;;5085968;28;20032;-51
2023/12/02 00:13:41;;;;;;;11.52;6.70;;;;;;;;;;5079204;28;20056;-53
2023/12/02 00:16:07;;;;;;;12.25;7.15;;;;;;;;;;5114964;22;20050;-59
2023/12/02 00:18:33;;;;;;;11.63;6.80;;;;;;;;;;5094210;28;20020;-55
2023/12/02 00:20:59;;;;;;;11.93;7.00;;;;;;;;;;5093516;28;20026;-60
2023/12/02 00:23:25;;;;;;;11.75;6.82;;;;;;;;;;5093953;28;20427;-60
2023/12/02 00:25:51;;;;;;;12.15;7.00;;;;;;;;;;5096127;28;20079;-58
2023/12/02 00:28:17;;;;;;;11.15;6.53;;;;;;;;;;5100416;28;20036;-53
2023/12/02 00:30:43;;;;;;;11.73;6.82;;;;;;;;;;5098877;28;20024;-55
2023/12/02 00:33:09;;;;;;;11.50;6.70;;;;;;;;;;5101270;28;20596;-56
2023/12/02 00:35:35;;;;;;;11.30;6.60;;;;;;;;;;5102172;28;20087;-60
2023/12/02 00:38:01;;;;;;;11.70;6.88;;;;;;;;;;5100911;28;20481;-59
2023/12/02 00:40:27;;;;;;;12.57;7.20;;;;;;;;;;5099990;28;20050;-60
2023/12/02 00:42:53;;;;;;;12.10;7.55;;;;;;;;;;5100559;28;20035;-56
2023/12/02 00:45:19;;;;;;;12.07;7.07;;;;;;;;;;5101281;28;20059;-56
2023/12/02 00:47:45;;;;;;;12.10;7.05;;;;;;;;;;5100213;28;20095;-60
2023/12/02 00:50:11;;;;;;;12.05;7.15;;;;;;;;;;5100879;28;20024;-58
2023/12/02 00:52:37;;;;;;;11.88;6.90;;;;;;;;;;5101678;28;20107;-60
2023/12/02 00:55:03;;;;;;;11.95;6.97;;;;;;;;;;5100955;28;20505;-57
2023/12/02 00:57:29;;;;;;;11.80;6.93;;;;;;;;;;5100888;28;20053;-57
2023/12/02 00:59:55;;;;;;;11.80;6.88;;;;;;;;;;5099418;28;20059;-59
2023/12/02 01:02:21;;;;;;;11.48;6.70;;;;;;;;;;5101356;28;20031;-58
2023/12/02 01:04:47;;;;;;;11.43;6.68;;;;;;;;;;5100919;28;20271;-60
2023/12/02 01:07:13;;;;;;;11.15;6.50;;;;;;;;;;5102075;28;20045;-60
2023/12/02 01:09:39;;;;;;;11.07;6.50;;;;;;;;;;5101274;28;20020;-57
2023/12/02 01:12:05;;;;;;;11.00;6.40;;;;;;;;;;5100607;28;20083;-56
2023/12/02 01:14:31;;;;;;;11.40;6.60;;;;;;;;;;5101207;28;20480;-61
2023/12/02 01:16:57;;;;;;;11.05;6.47;;;;;;;;;;5102127;28;20066;-59
2023/12/02 01:19:23;;;;;;;11.55;6.75;;;;;;;;;;5100943;28;20020;-58
2023/12/02 01:21:49;;;;;;;10.90;6.38;;;;;;;;;;5100840;28;20050;-57
2023/12/02 01:24:16;;;;;;;11.50;6.70;;;;;;;;;;5101476;28;20024;-58
2023/12/02 01:26:42;;;;;;;11.20;6.50;;;;;;;;;;5100695;28;20035;-57
2023/12/02 01:29:08;;;;;;;11.52;6.70;;;;;;;;;;5098763;28;20020;-56
2023/12/02 01:31:34;;;;;;;11.27;6.65;;;;;;;;;;5100307;28;20035;-59
2023/12/02 01:34:00;;;;;;;12.27;7.45;;;;;;;;;;5100788;28;20055;-60
2023/12/02 01:36:26;;;;;;;11.80;6.95;;;;;;;;;;5100744;28;20456;-61
2023/12/02 01:38:52;;;;;;;12.15;7.10;;;;;;;;;;5100365;28;20028;-61
2023/12/02 01:41:18;;;;;;;13.50;8.65;;;;;;;;;;5099839;28;20153;-58
2023/12/02 01:43:44;;;;;;;11.60;6.78;;;;;;;;;;5098943;28;20068;-58
2023/12/02 01:46:14;;;;;;;11.63;6.80;;;;;;;;;;5099845;28;20039;-58
2023/12/02 01:48:40;;;;;;;12.18;7.20;;;;;;;;;;5100522;28;20323;-60
2023/12/02 01:51:07;;;;;;;17.85;9.13;;;;;;;;;;5099447;28;20020;-58
2023/12/02 01:53:33;;;;;;;11.68;6.88;;;;;;;;;;5098131;28;20075;-56
2023/12/02 01:55:59;;;;;;;14.40;7.85;;;;;;;;;;5100341;28;20044;-61
2023/12/02 01:58:25;;;;;;;13.38;8.95;;;;;;;;;;5100961;28;20024;-56
2023/12/02 02:00:51;;;;;;;12.85;7.80;;;;;;;;;;5101586;28;20090;-61
2023/12/02 02:03:17;;;;;;;11.82;6.90;;;;;;;;;;5104302;28;20082;-61
2023/12/02 02:05:44;;;;;;;12.05;7.05;;;;;;;;;;5099151;28;20113;-60
2023/12/02 02:08:10;;;;;;;14.55;9.80;;;;;;;;;;5100409;28;20024;-60
2023/12/02 02:10:36;;;;;;;14.65;7.50;;;;;;;;;;5099117;28;20016;-58
2023/12/02 02:13:02;;;;;;;11.75;6.85;;;;;;;;;;5098659;28;20043;-57
2023/12/02 02:15:28;;;;;;;12.13;7.07;;;;;;;;;;5097965;28;20050;-61
2023/12/02 02:17:54;;;;;;;11.93;7.03;;;;;;;;;;5100498;28;20027;-60
2023/12/02 02:20:20;;;;;;;11.90;6.90;;;;;;;;;;5099522;28;20047;-58
2023/12/02 02:22:46;;;;;;;11.90;7.20;;;;;;;;;;5100357;28;20024;-56
2023/12/02 02:25:12;;;;;;;11.63;6.80;;;;;;;;;;5099300;28;20057;-61
2023/12/02 02:27:38;;;;;;;11.65;6.78;;;;;;;;;;5099834;28;20024;-59
2023/12/02 02:30:05;;;;;;;11.80;6.90;;;;;;;;;;5098852;28;20020;-60
2023/12/02 02:32:31;;;;;;;12.13;7.10;;;;;;;;;;5099847;28;20504;-61
2023/12/02 02:34:58;;;;;;;11.43;6.65;;;;;;;;;;5099766;28;20031;-58
2023/12/02 02:37:24;;;;;;;11.90;7.38;;;;;;;;;;5099665;28;20034;-62
2023/12/02 02:39:50;;;;;;;11.65;6.78;;;;;;;;;;5098774;28;20024;-62
2023/12/02 02:42:16;;;;;;;11.77;6.90;;;;;;;;;;5098644;28;20478;-61
2023/12/02 02:44:42;;;;;;;11.90;6.93;;;;;;;;;;5097498;28;20028;-60
2023/12/02 02:47:08;;;;;;;12.02;7.00;;;;;;;;;;5098242;28;20028;-58
2023/12/02 02:49:34;;;;;;;11.55;6.72;;;;;;;;;;5098025;28;20040;-59
2023/12/02 02:52:00;;;;;;;12.05;7.07;;;;;;;;;;5099052;28;20024;-62
2023/12/02 02:54:26;;;;;;;11.90;6.90;;;;;;;;;;5099065;28;20028;-60
2023/12/02 02:56:52;;;;;;;11.38;6.63;;;;;;;;;;5099290;28;20496;-61
2023/12/02 02:59:18;;;;;;;11.55;6.72;;;;;;;;;;5098859;28;20020;-58
2023/12/02 03:01:47;;;;;;;12.88;8.13;;;;;;;;;;5098355;28;20170;-54
2023/12/02 03:04:13;;;;;;;11.40;6.68;;;;;;;;;;5097434;28;20020;-59
2023/12/02 03:06:40;;;;;;;11.85;7.55;;;;;;;;;;5099300;28;20043;-57
2023/12/02 03:09:07;;;;;;;20.90;11.07;;;;;;;;;;5098831;28;20074;-61
2023/12/02 03:11:33;;;;;;;11.85;6.97;;;;;;;;;;5098835;28;20028;-59
2023/12/02 03:13:59;;;;;;;11.55;6.70;;;;;;;;;;5099695;28;20035;-59
2023/12/02 03:16:25;;;;;;;11.93;6.95;;;;;;;;;;5099056;28;20042;-60
2023/12/02 03:18:51;;;;;;;11.98;6.95;;;;;;;;;;5099037;28;20048;-61
2023/12/02 03:21:17;;;;;;;11.85;6.88;;;;;;;;;;5097455;28;20055;-61
2023/12/02 03:23:43;;;;;;;12.23;7.10;;;;;;;;;;5099002;28;20051;-60
2023/12/02 03:26:10;;;;;;;12.52;7.25;;;;;;;;;;5099119;28;20289;-60
2023/12/02 03:28:37;;;;;;;11.73;6.80;;;;;;;;;;5098649;28;20024;-61
2023/12/02 03:31:03;;;;;;;11.57;6.80;;;;;;;;;;5097614;28;20053;-55
2023/12/02 03:33:29;;;;;;;11.43;6.70;;;;;;;;;;5098893;28;20059;-58
2023/12/02 03:35:55;;;;;;;11.77;7.00;;;;;;;;;;5097311;28;20054;-62
2023/12/02 03:38:21;;;;;;;11.45;6.70;;;;;;;;;;5097702;28;20522;-63
2023/12/02 03:40:48;;;;;;;11.85;6.90;;;;;;;;;;5097227;28;20017;-60
2023/12/02 03:43:14;;;;;;;11.95;7.00;;;;;;;;;;5096997;28;20047;-59
2023/12/02 03:45:40;;;;;;;11.75;6.90;;;;;;;;;;5097577;28;20020;-55
2023/12/02 03:48:06;;;;;;;11.65;6.82;;;;;;;;;;5096687;28;20023;-60
2023/12/02 03:50:32;;;;;;;11.70;6.85;;;;;;;;;;5097814;28;20024;-59
2023/12/02 03:52:59;;;;;;;12.00;7.00;;;;;;;;;;5098867;28;20534;-61
2023/12/02 03:55:25;;;;;;;11.35;6.65;;;;;;;;;;5096697;28;20028;-61
2023/12/02 03:57:51;;;;;;;11.95;6.97;;;;;;;;;;5097578;28;20032;-59
2023/12/02 04:00:19;;;;;;;11.90;6.90;;;;;;;;;;5096304;28;20085;-59
2023/12/02 04:02:45;;;;;;;12.00;6.97;;;;;;;;;;5097240;28;20028;-62
2023/12/02 04:05:13;;;;;;;12.23;7.72;;;;;;;;;;5097749;28;20096;-58
2023/12/02 04:07:39;;;;;;;11.80;6.90;;;;;;;;;;5096859;28;20043;-59
2023/12/02 04:10:06;;;;;;;11.65;6.78;;;;;;;;;;5095835;28;20032;-60
2023/12/02 04:12:34;;;;;;;12.02;7.00;;;;;;;;;;5097627;28;20020;-58
2023/12/02 04:15:00;;;;;;;12.25;7.18;;;;;;;;;;5098326;28;20054;-60
2023/12/02 04:17:26;;;;;;;11.88;6.90;;;;;;;;;;5097451;28;20028;-59
2023/12/02 04:19:52;;;;;;;12.05;7.00;;;;;;;;;;5098966;28;20051;-52
2023/12/02 04:22:19;;;;;;;12.05;7.10;;;;;;;;;;5098267;28;20036;-58
2023/12/02 04:24:45;;;;;;;11.85;6.90;;;;;;;;;;5097677;28;20036;-59
2023/12/02 04:27:11;;;;;;;11.95;7.00;;;;;;;;;;5097001;28;20032;-60
2023/12/02 04:29:40;;;;;;;11.38;6.68;;;;;;;;;;5095973;28;20031;-56
2023/12/02 04:32:06;;;;;;;11.48;6.70;;;;;;;;;;5094540;28;20103;-56
2023/12/02 04:34:33;;;;;;;11.45;6.68;;;;;;;;;;5096348;28;20028;-58
2023/12/02 04:37:00;;;;;;;11.57;6.80;;;;;;;;;;5095021;28;20046;-58
2023/12/02 04:39:26;;;;;;;11.40;6.70;;;;;;;;;;5095326;28;20072;-59
2023/12/02 04:41:53;;;;;;;11.52;6.70;;;;;;;;;;5096092;28;20061;-58
2023/12/02 04:44:19;;;;;;;10.82;6.35;;;;;;;;;;5095555;28;20111;-58
2023/12/02 04:46:44;;;;;;;11.30;6.63;;;;;;;;;;5094040;28;20035;-57
2023/12/02 04:49:12;;;;;;;11.50;6.70;;;;;;;;;;5094869;28;20469;-55
2023/12/02 04:51:38;;;;;;;11.27;6.60;;;;;;;;;;5094369;28;20020;-60
2023/12/02 04:54:04;;;;;;;11.27;6.57;;;;;;;;;;5096189;28;20376;-59
2023/12/02 04:56:30;;;;;;;11.18;6.50;;;;;;;;;;5096271;28;20570;-57
2023/12/02 04:58:56;;;;;;;11.10;6.50;;;;;;;;;;5097342;28;20035;-62
2023/12/02 05:01:22;;;;;;;11.93;7.00;;;;;;;;;;5095811;28;20028;-59
2023/12/02 05:03:48;;;;;;;11.88;7.50;;;;;;;;;;5097324;28;20474;-61
2023/12/02 05:06:15;;;;;;;11.45;6.70;;;;;;;;;;5096729;28;20563;-59
2023/12/02 05:08:41;;;;;;;11.38;6.65;;;;;;;;;;5097898;28;20549;-58
2023/12/02 05:11:07;;;;;;;11.70;6.80;;;;;;;;;;5096407;28;20021;-58
2023/12/02 05:13:33;;;;;;;11.82;6.90;;;;;;;;;;5099108;28;20028;-60
2023/12/02 05:15:59;;;;;;;11.45;6.68;;;;;;;;;;5101116;28;20115;-56
2023/12/02 05:18:25;;;;;;;11.48;6.70;;;;;;;;;;5100839;28;20032;-59
2023/12/02 05:20:51;;;;;;;11.70;6.80;;;;;;;;;;5100370;28;20059;-61
2023/12/02 05:23:17;;;;;;;11.80;6.90;;;;;;;;;;5099792;28;20052;-57
2023/12/02 05:25:43;;;;;;;11.73;6.80;;;;;;;;;;5100559;28;20064;-57
2023/12/02 05:28:09;;;;;;;11.90;7.00;;;;;;;;;;5101080;28;20024;-58
2023/12/02 05:30:35;;;;;;;11.50;6.72;;;;;;;;;;5099912;28;20035;-55
2023/12/02 05:33:01;;;;;;;11.50;6.72;;;;;;;;;;5099984;28;20509;-56
2023/12/02 05:35:27;;;;;;;12.30;7.15;;;;;;;;;;5101086;28;20028;-58
2023/12/02 05:37:53;;;;;;;11.80;6.90;;;;;;;;;;5098816;28;20085;-61
2023/12/02 05:40:19;;;;;;;11.38;6.63;;;;;;;;;;5099973;28;20063;-63
2023/12/02 05:42:45;;;;;;;11.90;6.97;;;;;;;;;;5099001;28;20060;-61
2023/12/02 05:45:11;;;;;;;11.80;7.00;;;;;;;;;;5099326;28;20107;-54
2023/12/02 05:47:37;;;;;;;11.43;6.70;;;;;;;;;;5101357;28;20028;-61
2023/12/02 05:50:03;;;;;;;11.75;6.82;;;;;;;;;;5097594;28;20024;-61
2023/12/02 05:52:29;;;;;;;11.75;6.88;;;;;;;;;;5100166;28;20103;-60
2023/12/02 05:54:56;;;;;;;11.88;6.90;;;;;;;;;;5100166;28;20112;-61
2023/12/02 05:57:22;;;;;;;12.15;7.10;;;;;;;;;;5100312;28;20031;-56
2023/12/02 05:59:48;;;;;;;12.00;7.03;;;;;;;;;;5099596;28;20490;-58
2023/12/02 06:02:14;;;;;;;11.60;6.72;;;;;;;;;;5098717;28;20028;-61
2023/12/02 06:04:40;;;;;;;11.88;6.88;;;;;;;;;;5100631;28;20024;-57
2023/12/02 06:07:06;;;;;;;11.82;6.88;;;;;;;;;;5099937;28;20035;-61
2023/12/02 06:09:32;;;;;;;11.60;7.00;;;;;;;;;;5100380;28;20493;-59
2023/12/02 06:11:58;;;;;;;12.10;7.00;;;;;;;;;;5099718;28;20024;-59
2023/12/02 06:17:01;;;;;;;11.98;7.00;;;;;;;;;;5070208;28;20421;-48
2023/12/02 06:19:27;;;;;;;11.93;6.93;;;;;;;;;;5053002;28;20023;-54
2023/12/02 06:21:53;;;;;;;11.60;6.85;;;;;;;;;;5071486;28;20025;-49
2023/12/02 06:24:19;;;;;;;12.18;7.20;;;;;;;;;;5071859;28;20024;-55
2023/12/02 06:26:45;;;;;;;11.75;6.80;;;;;;;;;;5069959;28;20047;-54
2023/12/02 06:29:11;;;;;;;12.00;6.97;;;;;;;;;;5071601;28;20020;-53
2023/12/02 06:31:37;;;;;;;12.23;7.40;;;;;;;;;;5071093;28;20062;-51
2023/12/02 06:34:04;;;;;;;12.05;7.05;;;;;;;;;;5071470;28;20025;-55
2023/12/02 06:36:30;;;;;;;11.90;6.95;;;;;;;;;;5071672;28;20099;-50
2023/12/02 06:38:56;;;;;;;11.25;6.55;;;;;;;;;;5071280;28;20032;-53
2023/12/02 06:41:23;;;;;;;16.48;8.38;;;;;;;;;;5070747;28;20433;-52
2023/12/02 06:43:48;;;;;;;12.20;7.10;;;;;;;;;;5071276;28;20154;-56
2023/12/02 06:46:21;;;;;;;11.63;6.75;;;;;;;;;;5071078;28;20549;-53
2023/12/02 06:48:48;;;;;;;11.55;6.75;;;;;;;;;;5069946;28;20150;-53
2023/12/02 06:51:14;;;;;;;11.43;6.68;;;;;;;;;;5070045;28;20055;-53
2023/12/02 06:53:40;;;;;;;12.20;7.10;;;;;;;;;;5071219;28;20107;-55
2023/12/02 06:56:16;;;;;;;11.82;7.00;;;;;;;;;;5070940;28;20020;-52
2023/12/02 06:58:42;;;;;;;12.13;7.25;;;;;;;;;;5071261;28;20020;-52
2023/12/02 07:01:08;;;;;;;12.38;7.47;;;;;;;;;;5070199;28;20016;-49
2023/12/02 07:03:34;;;;;;;16.83;10.30;;;;;;;;;;5071313;28;20024;-53
2023/12/02 07:06:00;;;;;;;14.52;9.27;;;;;;;;;;5071061;28;20032;-54
2023/12/02 07:08:26;;;;;;;12.75;7.55;;;;;;;;;;5071194;28;20020;-56
2023/12/02 07:10:52;;;;;;;17.55;15.10;;;;;;;;;;5070210;28;20024;-51
2023/12/02 07:13:18;;;;;;;11.88;6.88;;;;;;;;;;5070826;28;20031;-54
2023/12/02 07:15:44;;;;;;;12.80;7.07;;;;;;;;;;5069164;28;20033;-52
2023/12/02 07:18:10;;;;;;;11.10;6.50;;;;;;;;;;5070911;28;20488;-52
2023/12/02 07:20:36;;;;;;;10.82;6.50;;;;;;;;;;5069754;28;20029;-53
2023/12/02 07:23:02;;;;;;;11.45;6.68;;;;;;;;;;5070649;28;20099;-54
2023/12/02 07:25:28;;;;;;;10.63;6.30;;;;;;;;;;5070570;28;20451;-52
2023/12/02 07:27:54;;;;;;;12.93;7.55;;;;;;;;;;5070447;28;20082;-49
2023/12/02 07:30:20;;;;;;;10.85;6.38;;;;;;;;;;5070458;28;20028;-54
2023/12/02 07:32:46;;;;;;;10.50;6.28;;;;;;;;;;5071338;28;20024;-51
2023/12/02 07:35:12;;;;;;;11.88;7.47;;;;;;;;;;5070504;28;20064;-49
2023/12/02 07:37:38;;;;;;;10.32;6.13;;;;;;;;;;5070181;28;20035;-53
2023/12/02 07:40:05;;;;;;;10.32;6.07;;;;;;;;;;5069645;28;20028;-53
2023/12/02 07:42:31;;;;;;;9.70;5.70;;;;;;;;;;5070404;28;20067;-57
2023/12/02 07:44:57;;;;;;;10.60;6.60;;;;;;;;;;5068852;28;20406;-52
2023/12/02 07:47:23;;;;;;;11.10;6.88;;;;;;;;;;5068858;28;20033;-55
2023/12/02 07:49:49;;;;;;;11.13;6.40;;;;;;;;;;5068770;28;20056;-54
2023/12/02 07:52:15;;;;;;;11.27;6.60;;;;;;;;;;5069797;28;20125;-52
2023/12/02 07:54:41;;;;;;;10.80;6.80;;;;;;;;;;5070389;28;20021;-51
2023/12/02 07:57:07;;;;;;;12.60;8.80;;;;;;;;;;5070317;28;20050;-52
2023/12/02 07:59:33;;;;;;;10.38;6.07;;;;;;;;;;5070031;28;20116;-55
2023/12/02 08:01:59;;;;;;;10.60;6.32;;;;;;;;;;5069756;28;20036;-50
2023/12/02 08:04:25;;;;;;;10.48;6.70;;;;;;;;;;5068901;28;20029;-52
2023/12/02 08:06:51;;;;;;;10.90;6.40;;;;;;;;;;5070162;28;20020;-52
2023/12/02 08:09:17;;;;;;;10.75;6.47;;;;;;;;;;5070027;28;20032;-52
2023/12/02 08:11:43;;;;;;;12.55;8.25;;;;;;;;;;5069499;28;20442;-54
2023/12/02 08:14:09;;;;;;;10.32;6.05;;;;;;;;;;5070206;28;20025;-57
2023/12/02 08:16:35;;;;;;;10.75;6.40;;;;;;;;;;5070173;28;20033;-55
2023/12/02 08:19:01;;;;;;;10.27;5.88;;;;;;;;;;5069765;28;20631;-53
2023/12/02 08:21:27;;;;;;;11.05;7.43;;;;;;;;;;5069131;28;20500;-56
2023/12/02 08:23:53;;;;;;;13.52;8.65;;;;;;;;;;5069762;28;20040;-54
2023/12/02 08:26:19;;;;;;;10.65;6.25;;;;;;;;;;5067241;28;20133;-56
2023/12/02 08:28:48;;;;;;;10.57;6.18;;;;;;;;;;5069283;28;20109;-54
2023/12/02 08:31:14;;;;;;;11.32;6.93;;;;;;;;;;5068725;28;20017;-51
2023/12/02 08:33:40;;;;;;;10.93;6.40;;;;;;;;;;5069469;28;20082;-55
2023/12/02 08:36:07;;;;;;;11.07;6.45;;;;;;;;;;5069518;28;20028;-49
2023/12/02 08:38:33;;;;;;;13.45;7.78;;;;;;;;;;5069438;28;20032;-51
2023/12/02 08:40:59;;;;;;;11.77;6.93;;;;;;;;;;5068581;28;20749;-56
2023/12/02 08:43:25;;;;;;;11.60;6.97;;;;;;;;;;5069251;28;20024;-47
2023/12/02 08:45:51;;;;;;;13.10;9.05;;;;;;;;;;5068997;28;20055;-51
2023/12/02 08:48:17;;;;;;;12.25;7.03;;;;;;;;;;5071655;28;20021;-49
2023/12/02 08:50:43;;;;;;;14.32;8.77;;;;;;;;;;5072316;28;20143;-51
2023/12/02 08:53:09;;;;;;;15.15;10.43;;;;;;;;;;5071996;28;20577;-54
2023/12/02 08:55:35;;;;;;;13.43;8.43;;;;;;;;;;5072131;28;20039;-51
2023/12/02 08:58:02;;;;;;;12.27;7.63;;;;;;;;;;5072058;28;20375;-52
2023/12/02 09:00:30;;;;;;;13.27;8.15;;;;;;;;;;5072670;28;20028;-51
2023/12/02 09:02:56;;;;;;;14.00;7.28;;;;;;;;;;5073439;28;20047;-52
2023/12/02 09:05:22;;;;;;;10.35;6.07;;;;;;;;;;5073186;28;20028;-50
2023/12/02 09:07:48;;;;;;;14.60;8.60;;;;;;;;;;5073149;28;20417;-55
2023/12/02 09:10:14;;;;;;;14.63;7.85;;;;;;;;;;5072289;28;20021;-54
2023/12/02 09:12:41;;;;;;;15.50;10.52;;;;;;;;;;5072975;28;20021;-52
2023/12/02 09:15:08;;;;;;;15.60;9.68;;;;;;;;;;5071417;28;20036;-52
2023/12/02 09:17:52;;;;;;;11.43;6.90;;;;;;;;;;5072851;28;20025;-49
2023/12/02 09:20:35;;;;;;;16.45;8.93;;;;;;;;;;5070857;28;20028;-53
2023/12/02 09:23:01;;;;;;;13.52;9.95;;;;;;;;;;5072854;28;20035;-49
2023/12/02 09:25:28;;;;;;;10.27;6.03;;;;;;;;;;5072634;28;20122;-47
2023/12/02 09:28:06;;;;;;;16.00;8.70;;;;;;;;;;5072674;28;20077;-45
2023/12/02 09:30:36;;;;;;;34.95;10.68;;;;;;;;;;5075796;28;20012;-48
2023/12/02 09:33:06;;;;;;;13.50;7.40;;;;;;;;;;5091606;28;20239;-49
2023/12/02 09:35:32;;;;;;;13.90;8.95;;;;;;;;;;5091527;28;20081;-50
2023/12/02 09:37:59;;;;;;;15.05;8.55;;;;;;;;;;5092626;28;20085;-48
2023/12/02 09:40:43;;;;;;;12.38;7.32;;;;;;;;;;5091763;28;20272;-47
2023/12/02 09:43:09;;;;;;;12.77;8.52;;;;;;;;;;5092634;28;20051;-52
2023/12/02 09:45:42;;;;;;;13.73;8.38;;;;;;;;;;5092381;28;20073;-50
2023/12/02 09:48:17;;;;;;;13.15;8.00;;;;;;;;;;5092702;28;20038;-49
2023/12/02 09:51:02;;;;;;;17.88;10.70;;;;;;;;;;5092107;28;20490;-52
2023/12/02 09:53:43;;;;;;;15.50;9.57;;;;;;;;;;5092464;28;20076;-49
2023/12/02 09:56:20;;;;;;;13.82;8.52;;;;;;;;;;5091229;28;20397;-48
2023/12/02 09:58:46;;;;;;;13.68;8.60;;;;;;;;;;5091975;28;20024;-47
2023/12/02 10:01:35;;;;;;;16.38;11.60;;;;;;;;;;5089753;28;20116;-48
2023/12/02 10:04:16;;;;;;;13.20;7.80;;;;;;;;;;5072001;28;20028;-49
2023/12/02 10:06:44;;;;;;;19.27;10.23;;;;;;;;;;5072204;28;20375;-48
2023/12/02 10:09:29;;;;;;;18.93;11.90;;;;;;;;;;5070651;28;20107;-54
2023/12/02 10:12:10;;;;;;;18.60;12.02;;;;;;;;;;5071681;28;20664;-48
2023/12/02 10:14:37;;;;;;;19.02;10.75;;;;;;;;;;5071310;28;20027;-48
2023/12/02 10:17:04;;;;;;;16.10;10.38;;;;;;;;;;5070208;28;20063;-50
2023/12/02 10:19:33;;;;;;;12.80;7.60;;;;;;;;;;5071796;28;20497;-48
2023/12/02 10:22:02;;;;;;;13.55;8.32;;;;;;;;;;5071780;28;20029;-49
2023/12/02 10:24:44;;;;;;;15.80;9.80;;;;;;;;;;5071239;28;20048;-52
2023/12/02 10:27:13;;;;;;;18.15;10.90;;;;;;;;;;5071491;28;20024;-49
2023/12/02 10:29:57;;;;;;;13.13;8.00;;;;;;;;;;5069929;28;20072;-48
2023/12/02 10:32:30;;;;;;;14.77;9.35;;;;;;;;;;5071291;28;20082;-52
2023/12/02 10:35:05;;;;;;;16.27;11.30;;;;;;;;;;5070899;28;20498;-48
2023/12/02 10:37:37;;;;;;;14.23;9.68;;;;;;;;;;5071059;28;20060;-51
2023/12/02 10:40:08;;;;;;;15.45;8.50;;;;;;;;;;5071772;28;20021;-51
2023/12/02 10:42:49;;;;;;;12.98;8.00;;;;;;;;;;5071280;28;20033;-49
2023/12/02 10:45:15;;;;;;;13.10;7.80;;;;;;;;;;5070730;28;20039;-51
2023/12/02 10:47:42;;;;;;;12.85;7.43;;;;;;;;;;5069819;28;20021;-52
2023/12/02 10:50:08;;;;;;;13.50;8.43;;;;;;;;;;5069554;28;20020;-47
2023/12/02 10:52:36;;;;;;;12.55;7.30;;;;;;;;;;5071302;28;20021;-47
2023/12/02 10:55:03;;;;;;;15.38;9.10;;;;;;;;;;5071015;28;20024;-49
2023/12/02 10:57:29;;;;;;;12.60;7.32;;;;;;;;;;5071127;28;20033;-53
2023/12/02 11:00:06;;;;;;;15.15;10.25;;;;;;;;;;5070929;28;20589;-54
2023/12/02 11:02:41;;;;;;;13.13;8.13;;;;;;;;;;5069785;28;20023;-48
2023/12/02 11:05:16;;;;;;;12.95;7.78;;;;;;;;;;5070654;28;20390;-50
2023/12/02 11:07:44;;;;;;;18.25;11.13;;;;;;;;;;5070270;28;20020;-54
2023/12/02 11:10:13;;;;;;;18.20;10.25;;;;;;;;;;5069215;28;20032;-50
2023/12/02 11:12:46;;;;;;;19.05;9.00;;;;;;;;;;5070568;28;20392;-53
2023/12/02 11:15:13;;;;;;;13.18;7.70;;;;;;;;;;5070194;28;20105;-53
2023/12/02 11:17:39;;;;;;;13.88;8.60;;;;;;;;;;5070542;28;20028;-51
2023/12/02 11:20:09;;;;;;;18.52;10.88;;;;;;;;;;5070272;28;20029;-49
2023/12/02 11:22:41;;;;;;;13.57;7.55;;;;;;;;;;5070659;28;20024;-52
2023/12/02 11:25:21;;;;;;;13.20;8.23;;;;;;;;;;5070080;28;20075;-48
2023/12/02 11:27:53;;;;;;;17.20;10.05;;;;;;;;;;5070480;28;20016;-52
2023/12/02 11:30:19;;;;;;;14.60;9.00;;;;;;;;;;5069051;28;20502;-48
2023/12/02 11:32:54;;;;;;;14.48;8.90;;;;;;;;;;5070833;28;20063;-51
2023/12/02 11:35:26;;;;;;;13.68;8.57;;;;;;;;;;5070216;28;20040;-53
2023/12/02 11:37:57;;;;;;;17.23;10.55;;;;;;;;;;5070658;28;20062;-52
2023/12/02 11:40:27;;;;;;;12.73;7.93;;;;;;;;;;5068945;28;20028;-49
2023/12/02 11:42:59;;;;;;;13.20;7.70;;;;;;;;;;5070366;28;20107;-52
2023/12/02 11:45:47;;;;;;;13.35;8.07;;;;;;;;;;5070452;28;20040;-49
2023/12/02 11:48:13;;;;;;;13.02;7.50;;;;;;;;;;5068804;28;20017;-49
2023/12/02 11:50:39;;;;;;;15.45;8.88;;;;;;;;;;5069916;28;20023;-54
2023/12/02 11:53:23;;;;;;;13.23;9.30;;;;;;;;;;5070030;28;20119;-51
2023/12/02 11:55:59;;;;;;;14.18;8.07;;;;;;;;;;5050017;28;20787;-51
2023/12/02 11:58:35;;;;;;;13.77;7.97;;;;;;;;;;5050034;28;20083;-49
2023/12/02 12:01:26;;;;;;;12.55;7.43;;;;;;;;;;5049911;28;20056;-48
2023/12/02 12:04:10;;;;;;;16.50;10.55;;;;;;;;;;5050129;28;20455;-50
2023/12/02 12:06:55;;;;;;;17.95;11.65;;;;;;;;;;5050239;28;20033;-50
2023/12/02 12:09:27;;;;;;;13.35;7.88;;;;;;;;;;5049134;28;20074;-53
2023/12/02 12:11:54;;;;;;;15.27;8.85;;;;;;;;;;5048650;28;20363;-51
2023/12/02 12:14:20;;;;;;;13.20;7.80;;;;;;;;;;5061977;28;20031;-62
2023/12/02 12:16:46;;;;;;;17.35;10.02;;;;;;;;;;5086336;23;20100;-44
2023/12/02 12:19:13;;;;;;;13.90;9.07;;;;;;;;;;5088964;28;20024;-45
2023/12/02 12:21:41;;;;;;;12.20;7.72;;;;;;;;;;5091461;28;20422;-47
2023/12/02 12:24:07;;;;;;;24.08;12.38;;;;;;;;;;5094173;28;20020;-44
2023/12/02 12:26:33;;;;;;;12.50;7.28;;;;;;;;;;5094208;28;20039;-49
2023/12/02 12:28:59;;;;;;;12.63;6.80;;;;;;;;;;5094165;28;20683;-47
2023/12/02 12:31:29;;;;;;;13.15;8.88;;;;;;;;;;5095116;28;20114;-47
2023/12/02 12:33:55;;;;;;;13.15;7.43;;;;;;;;;;5095730;28;20017;-47
2023/12/02 12:36:28;;;;;;;11.43;6.75;;;;;;;;;;5093981;28;20032;-48
2023/12/02 12:38:56;;;;;;;20.42;9.15;;;;;;;;;;5095366;28;20024;-53
2023/12/02 12:41:23;;;;;;;12.75;7.50;;;;;;;;;;5095591;28;20035;-51
2023/12/02 12:43:49;;;;;;;14.85;9.57;;;;;;;;;;5094771;28;20444;-45
2023/12/02 12:46:16;;;;;;;11.15;6.78;;;;;;;;;;5094108;28;20137;-49
2023/12/02 12:48:45;;;;;;;17.73;9.73;;;;;;;;;;5094106;28;20024;-48
2023/12/02 12:51:12;;;;;;;11.57;6.97;;;;;;;;;;5093855;28;20016;-50
2023/12/02 12:53:45;;;;;;;19.63;8.77;;;;;;;;;;5093860;28;20107;-48
2023/12/02 12:56:12;;;;;;;18.65;9.88;;;;;;;;;;5092592;28;20551;-49
2023/12/02 12:58:54;;;;;;;13.45;9.18;;;;;;;;;;5093681;28;20488;-45
2023/12/02 13:01:21;;;;;;;18.52;8.63;;;;;;;;;;5093679;28;20094;-48
2023/12/02 13:03:51;;;;;;;19.73;9.45;;;;;;;;;;5093289;28;20062;-50
2023/12/02 13:06:19;;;;;;;15.32;8.25;;;;;;;;;;5093360;28;20024;-47
2023/12/02 13:08:50;;;;;;;11.00;6.40;;;;;;;;;;5092198;28;20024;-48
2023/12/02 13:11:20;;;;;;;15.35;7.88;;;;;;;;;;5093343;28;20024;-46
2023/12/02 13:13:48;;;;;;;11.48;6.78;;;;;;;;;;5092992;28;20020;-47
2023/12/02 13:16:14;;;;;;;;;;;;;;;;;;5093685;28;20390;-49
2023/12/02 13:18:40;;;;;;;17.38;9.02;;;;;;;;;;5092476;28;19912;-47
2023/12/02 13:21:07;;;;;;;16.80;8.68;;;;;;;;;;5093120;28;20031;-46
2023/12/02 13:23:34;;;;;;;12.07;7.47;;;;;;;;;;5093432;28;20056;-50
2023/12/02 13:26:03;;;;;;;13.35;7.35;;;;;;;;;;5093519;28;20024;-52
2023/12/02 13:28:36;;;;;;;14.50;8.68;;;;;;;;;;5093172;28;20092;-48
2023/12/02 13:31:03;;;;;;;12.43;7.43;;;;;;;;;;5093004;28;20047;-47
2023/12/02 13:33:46;;;;;;;13.13;8.37;;;;;;;;;;5092554;28;20058;-45
2023/12/02 13:36:13;;;;;;;14.13;8.98;;;;;;;;;;5091796;28;20039;-46
2023/12/02 13:38:42;;;;;;;12.73;7.50;;;;;;;;;;5092978;28;20422;-47
2023/12/02 13:41:14;;;;;;;13.45;8.18;;;;;;;;;;5092767;28;20024;-47
2023/12/02 13:43:48;;;;;;;11.45;7.28;;;;;;;;;;5091774;28;20047;-50
2023/12/02 13:46:17;;;;;;;11.60;7.00;;;;;;;;;;5093060;28;20429;-49
2023/12/02 13:48:46;;;;;;;15.05;8.57;;;;;;;;;;5092999;28;20021;-47
2023/12/02 13:51:30;;;;;;;11.32;6.68;;;;;;;;;;5092697;28;20061;-47
2023/12/02 13:54:02;;;;;;;14.60;9.63;;;;;;;;;;5092832;28;20020;-45
2023/12/02 13:56:35;;;;;;;20.42;12.93;;;;;;;;;;5092895;28;20180;-47
2023/12/02 13:59:04;;;;;;;13.00;7.60;;;;;;;;;;5092907;28;20123;-47
2023/12/02 14:01:35;;;;;;;11.27;6.57;;;;;;;;;;5091420;28;20028;-49
2023/12/02 14:04:10;;;;;;;18.92;10.48;;;;;;;;;;5092466;28;20080;-47
2023/12/02 14:06:46;;;;;;;17.30;8.65;;;;;;;;;;5092459;28;20147;-46
2023/12/02 14:09:17;;;;;;;11.20;6.60;;;;;;;;;;5090556;28;20047;-49
2023/12/02 14:11:56;;;;;;;11.25;6.95;;;;;;;;;;5074421;28;20115;-50
2023/12/02 14:14:38;;;;;;;24.48;11.65;;;;;;;;;;5092441;28;20115;-46
2023/12/02 14:17:29;;;;;;;14.20;9.10;;;;;;;;;;5091642;28;20032;-46
2023/12/02 14:20:10;;;;;;;19.33;11.27;;;;;;;;;;5092194;28;20738;-47
2023/12/02 14:22:53;;;;;;;12.57;7.43;;;;;;;;;;5090928;28;20032;-50
2023/12/02 14:25:32;;;;;;;20.73;11.25;;;;;;;;;;5091963;28;20031;-49
2023/12/02 14:28:04;;;;;;;14.77;8.20;;;;;;;;;;5092005;28;20020;-51
2023/12/02 14:30:49;;;;;;;15.65;8.88;;;;;;;;;;5091997;28;20028;-46
2023/12/02 14:33:35;;;;;;;10.70;6.40;;;;;;;;;;5092093;28;20535;-45
2023/12/02 14:36:01;;;;;;;13.85;9.02;;;;;;;;;;5092157;28;20085;-46
2023/12/02 14:38:44;;;;;;;17.38;10.52;;;;;;;;;;5092320;28;20019;-47